Terminal Aerodrome Forecast
Issued by NWS

Home | Current Version | Previous Version | Graphics & Text | Print | Product List | Glossary On
Versions: 1 2 3 4 5 6 7 8 9 10 11 12 13 14 15 16 17 18 19 20
087
FTUS43 KGRB 280330 AAA
TAFCWA
TAF AMD
KCWA 280330Z 2804/2824 07011G19KT P6SM SCT050 OVC080
     FM281500 08012KT P6SM SCT050 OVC070
      AMD LTD TO CLD VIS AND WIND TIL 281100=

USA.gov is the U.S. government's official web portal to all federal, state and local government web resources and services.